Terminal Aerodrome Forecast
Issued by NWS Kansas City/Pleasant Hill, MO

Home | Current Version | Previous Version | Text Only | Print | Product List | Glossary On
Versions: 1 2 3 4 5 6 7 8 9 10 11 12
000
FTUS43 KEAX 061100
TAFMCI
TAF
KMCI 061120Z 0612/0712 19012KT P6SM BKN250
     FM061700 20014G22KT P6SM SCT040
     FM062300 20014G22KT P6SM VCTS SCT025CB OVC030
      TEMPO 0623/0624 2SM TSRA OVC015CB
     FM070000 34010KT 3SM TSRA SCT015CB OVC030
     FM070400 35015KT 6SM -RA SCT015 OVC025
     FM070700 01010KT P6SM SCT030=

USA.gov is the U.S. government's official web portal to all federal, state and local government web resources and services.